Time;durP1;ratioP1;P1;durP2;ratioP2;P2;SDS_P1;SDS_P2;PMS_P1;PMS_P2;Temp;Humidity;BMP_temperature;BMP_pressure;BME280_temperature;BME280_humidity;BME280_pressure;Samples;Min_cycle;Max_cycle;Signal;HPM_P1;HPM_P2
2022/08/31 00:06:02;;;;;;;9.95;8.98;;;20.70;85.70;;;;;;5095689;28;20030;-89
2022/08/31 00:08:28;;;;;;;11.30;8.70;;;20.50;80.40;;;;;;5095554;28;20035;-89
2022/08/31 00:10:55;;;;;;;9.70;8.70;;;20.60;67.30;;;;;;5095576;28;20032;-89
2022/08/31 00:13:22;;;;;;;10.85;9.45;;;20.70;66.30;;;;;;5095103;28;20067;-89
2022/08/31 00:15:49;;;;;;;10.40;9.32;;;20.70;64.30;;;;;;5077173;28;20025;-89
2022/08/31 00:18:15;;;;;;;10.23;9.32;;;20.60;77.20;;;;;;5095475;28;20110;-89
2022/08/31 00:20:42;;;;;;;10.15;9.23;;;20.60;77.70;;;;;;5095290;28;20449;-89
2022/08/31 00:23:10;;;;;;;11.60;9.65;;;20.60;86.50;;;;;;5095476;28;20546;-89
2022/08/31 00:25:38;;;;;;;10.57;9.57;;;20.50;81.70;;;;;;5077072;28;20024;-89
2022/08/31 00:28:05;;;;;;;13.05;10.25;;;20.40;69.70;;;;;;5094899;28;20412;-89
2022/08/31 00:30:31;;;;;;;11.43;10.25;;;20.40;63.00;;;;;;5094912;28;20089;-89
2022/08/31 00:32:57;;;;;;;11.90;10.70;;;20.40;72.80;;;;;;5094017;28;20032;-89
2022/08/31 00:35:23;;;;;;;13.95;11.23;;;20.40;71.20;;;;;;5095181;28;20024;-90
2022/08/31 00:37:48;;;;;;;12.18;10.98;;;20.50;62.60;;;;;;5094943;28;20020;-89
2022/08/31 00:40:15;;;;;;;12.77;11.40;;;20.60;59.30;;;;;;5094977;28;20035;-90
2022/08/31 00:42:40;;;;;;;12.60;11.38;;;20.70;74.00;;;;;;5094686;28;20028;-89
2022/08/31 00:45:08;;;;;;;12.32;10.82;;;20.80;69.60;;;;;;5076725;28;20043;-89
2022/08/31 00:47:34;;;;;;;16.25;11.48;;;20.80;81.70;;;;;;5094735;28;20039;-90
2022/08/31 00:50:01;;;;;;;15.02;12.02;;;20.80;66.60;;;;;;5094912;28;20020;-89
2022/08/31 00:52:31;;;;;;;12.77;11.48;;;20.80;84.00;;;;;;5094628;28;20044;-89
2022/08/31 00:55:06;;;;;;;14.30;11.82;;;20.80;83.00;;;;;;5094782;28;20024;-89
2022/08/31 00:57:35;;;;;;;13.63;11.63;;;20.80;74.00;;;;;;5094148;28;20032;-89
2022/08/31 01:00:08;;;;;;;13.65;12.10;;;20.80;81.00;;;;;;5094700;28;20020;-89
2022/08/31 01:02:33;;;;;;;12.52;11.05;;;20.80;91.20;;;;;;5094403;28;20132;-90
2022/08/31 01:04:59;;;;;;;15.13;11.75;;;20.70;62.70;;;;;;5094567;28;20512;-89
2022/08/31 01:07:26;;;;;;;13.23;11.68;;;20.70;61.70;;;;;;5094452;28;20024;-89
2022/08/31 01:09:53;;;;;;;12.57;11.25;;;20.60;80.00;;;;;;5094580;28;20105;-89
2022/08/31 01:12:19;;;;;;;12.02;10.93;;;20.70;83.70;;;;;;5094008;28;20036;-89
2022/08/31 01:14:45;;;;;;;12.88;11.38;;;20.70;82.60;;;;;;5094037;28;20369;-89
2022/08/31 01:17:11;;;;;;;13.85;11.65;;;20.80;65.20;;;;;;5094683;28;20476;-89
2022/08/31 01:19:38;;;;;;;13.07;11.52;;;20.70;62.20;;;;;;5094174;28;20024;-89
2022/08/31 01:22:09;;;;;;;13.10;11.52;;;20.70;65.00;;;;;;5094373;28;20043;-89
2022/08/31 01:24:38;;;;;;;11.85;10.50;;;20.70;93.70;;;;;;5094244;28;20107;-90
2022/08/31 01:27:06;;;;;;;12.90;11.35;;;20.70;89.60;;;;;;5075533;28;20425;-89
2022/08/31 01:29:33;;;;;;;13.73;11.00;;;20.60;75.60;;;;;;5093924;28;20031;-89
2022/08/31 01:31:59;;;;;;;14.38;11.85;;;20.60;80.10;;;;;;5093671;28;20405;-89
2022/08/31 01:34:25;;;;;;;13.43;12.02;;;20.60;82.80;;;;;;5093950;28;20058;-89
2022/08/31 01:36:51;;;;;;;14.43;11.73;;;20.60;81.00;;;;;;5093846;28;20477;-89
2022/08/31 01:39:18;;;;;;;13.18;11.05;;;20.70;73.20;;;;;;5093911;28;20080;-89
2022/08/31 01:41:44;;;;;;;12.27;11.18;;;20.70;73.00;;;;;;5093654;28;20039;-89
2022/08/31 01:44:16;;;;;;;12.23;11.02;;;20.70;75.30;;;;;;5093630;28;20020;-89
2022/08/31 01:46:42;;;;;;;11.95;10.75;;;20.70;79.30;;;;;;5075592;28;20035;-89
2022/08/31 01:49:08;;;;;;;13.95;11.05;;;20.70;81.90;;;;;;5093703;28;20484;-89
2022/08/31 01:51:34;;;;;;;12.38;11.15;;;20.70;68.10;;;;;;5093601;28;20161;-90
2022/08/31 01:54:00;;;;;;;13.27;11.95;;;20.80;68.40;;;;;;5093610;28;20064;-88
2022/08/31 01:56:33;;;;;;;12.73;11.35;;;20.70;84.80;;;;;;5093132;28;20481;-89
2022/08/31 01:58:58;;;;;;;12.80;11.52;;;20.60;91.50;;;;;;5093413;28;20024;-89
2022/08/31 02:01:31;;;;;;;12.95;11.65;;;20.60;74.80;;;;;;5093531;28;20032;-89
2022/08/31 02:03:56;;;;;;;13.27;11.90;;;20.70;76.10;;;;;;5093322;28;20469;-89
2022/08/31 02:06:22;;;;;;;14.50;12.48;;;20.70;65.80;;;;;;5075219;28;20024;-89
2022/08/31 02:08:49;;;;;;;13.38;11.80;;;20.70;99.90;;;;;;5092949;28;20556;-89
2022/08/31 02:11:15;;;;;;;14.55;12.30;;;20.70;85.00;;;;;;5093272;28;20021;-89
2022/08/31 02:13:40;;;;;;;12.80;11.48;;;20.80;68.70;;;;;;5093066;28;20089;-89
2022/08/31 02:16:06;;;;;;;13.35;11.10;;;20.70;59.40;;;;;;5093092;28;20028;-89
2022/08/31 02:18:34;;;;;;;12.52;11.32;;;20.60;65.20;;;;;;5093181;28;20030;-89
2022/08/31 02:21:00;;;;;;;13.50;11.38;;;20.80;77.50;;;;;;5093035;28;20024;-89
2022/08/31 02:23:25;;;;;;;15.85;11.32;;;20.70;62.10;;;;;;5092694;28;20047;-89
2022/08/31 02:25:51;;;;;;;12.85;11.40;;;20.70;64.70;;;;;;5074904;28;20059;-89
2022/08/31 02:28:17;;;;;;;13.07;11.48;;;20.70;67.60;;;;;;5092967;28;20055;-89
2022/08/31 02:30:44;;;;;;;14.48;11.93;;;20.90;63.10;;;;;;5092850;28;20036;-89
2022/08/31 02:33:10;;;;;;;12.57;11.27;;;20.90;74.90;;;;;;5092858;28;20044;-89
2022/08/31 02:35:37;;;;;;;12.15;10.90;;;20.80;71.20;;;;;;5074816;28;20119;-88
2022/08/31 02:38:04;;;;;;;12.90;10.93;;;20.80;71.40;;;;;;5092647;28;20032;-89
2022/08/31 02:40:30;;;;;;;12.60;11.35;;;20.80;90.00;;;;;;5092798;28;20081;-89
2022/08/31 02:42:56;;;;;;;12.32;10.50;;;20.80;80.10;;;;;;5092821;28;20024;-89
2022/08/31 02:45:22;;;;;;;13.82;11.32;;;20.80;70.20;;;;;;5092760;28;20027;-89
2022/08/31 02:47:47;;;;;;;13.00;11.35;;;20.90;81.50;;;;;;5092826;28;20388;-89
2022/08/31 02:50:13;;;;;;;13.43;11.93;;;20.80;80.10;;;;;;5092751;28;20511;-89
2022/08/31 02:52:38;;;;;;;14.55;12.18;;;20.80;67.50;;;;;;5092257;28;20039;-89
2022/08/31 02:55:05;;;;;;;13.77;10.57;;;20.80;94.00;;;;;;5074710;28;20032;-89
2022/08/31 02:57:31;;;;;;;14.45;10.80;;;20.90;88.30;;;;;;5092226;28;20392;-89
2022/08/31 02:59:56;;;;;;;11.75;10.55;;;20.90;90.70;;;;;;5092602;28;20020;-89
2022/08/31 03:02:22;;;;;;;11.50;10.38;;;21.00;85.90;;;;;;5092582;28;20031;-89
2022/08/31 03:04:48;;;;;;;11.23;9.57;;;21.00;90.10;;;;;;5092570;28;20028;-89
2022/08/31 03:07:14;;;;;;;15.70;11.38;;;21.00;90.70;;;;;;5092126;28;20112;-89
2022/08/31 03:09:40;;;;;;;14.70;11.98;;;21.00;85.10;;;;;;5074411;28;20056;-89
2022/08/31 03:12:06;;;;;;;14.65;12.02;;;20.80;84.00;;;;;;5092455;28;20020;-89
2022/08/31 03:14:31;;;;;;;14.73;11.88;;;20.90;86.70;;;;;;5092338;28;20032;-89
2022/08/31 03:16:57;;;;;;;14.63;11.55;;;20.80;85.50;;;;;;5074286;28;20016;-88
2022/08/31 03:19:23;;;;;;;14.90;11.43;;;20.90;84.00;;;;;;5092418;28;20488;-89
2022/08/31 03:21:48;;;;;;;12.65;11.45;;;20.90;82.50;;;;;;5092027;28;20023;-89
2022/08/31 03:24:16;;;;;;;14.85;12.50;;;20.90;77.10;;;;;;5092295;28;20036;-88
2022/08/31 03:26:43;;;;;;;15.05;12.38;;;20.80;79.20;;;;;;5074257;28;20024;-89
2022/08/31 03:29:09;;;;;;;16.55;13.98;;;20.80;81.80;;;;;;5092286;28;20051;-89
2022/08/31 03:31:34;;;;;;;16.23;13.00;;;20.80;73.50;;;;;;5074077;28;20075;-89
2022/08/31 03:34:00;;;;;;;17.70;13.35;;;20.90;73.90;;;;;;5092381;28;20404;-89
2022/08/31 03:36:25;;;;;;;16.33;13.55;;;20.90;73.50;;;;;;5091818;28;20020;-89
2022/08/31 03:38:51;;;;;;;14.82;12.45;;;20.90;77.70;;;;;;5092317;28;20035;-89
2022/08/31 03:41:22;;;;;;;13.90;12.48;;;20.90;84.80;;;;;;5092343;28;20020;-89
2022/08/31 03:43:47;;;;;;;15.25;12.80;;;20.90;90.30;;;;;;5092235;28;20047;-89
2022/08/31 03:46:13;;;;;;;13.90;12.35;;;20.80;91.40;;;;;;5092108;28;20028;-89
2022/08/31 03:48:39;;;;;;;15.38;12.95;;;20.80;74.60;;;;;;5092136;28;20082;-89
2022/08/31 03:51:06;;;;;;;20.10;12.75;;;20.80;75.50;;;;;;5091828;28;20028;-89
2022/08/31 03:53:31;;;;;;;14.13;12.70;;;20.80;81.10;;;;;;5091998;28;20063;-89
2022/08/31 03:56:01;;;;;;;15.73;13.48;;;20.70;75.90;;;;;;5092136;28;20477;-89
2022/08/31 03:58:31;;;;;;;13.63;12.25;;;20.70;64.90;;;;;;5091912;28;20058;-89
2022/08/31 04:00:56;;;;;;;13.70;12.30;;;20.80;94.60;;;;;;5073843;28;20024;-88
2022/08/31 04:03:22;;;;;;;14.27;12.60;;;20.80;91.40;;;;;;5092147;28;20445;-88
2022/08/31 04:05:49;;;;;;;14.02;11.90;;;20.80;91.80;;;;;;5091627;28;20024;-89
2022/08/31 04:08:17;;;;;;;14.15;12.38;;;20.90;81.00;;;;;;5093092;28;20115;-89
2022/08/31 04:10:46;;;;;;;13.45;12.02;;;20.90;85.40;;;;;;5095572;28;20016;-89
2022/08/31 04:13:12;;;;;;;14.52;12.88;;;20.90;87.90;;;;;;5095513;28;20039;-88
2022/08/31 04:15:38;;;;;;;15.73;13.05;;;20.90;80.50;;;;;;5095246;28;20030;-88
2022/08/31 04:18:05;;;;;;;14.85;13.43;;;20.90;75.60;;;;;;5095509;28;20089;-89
2022/08/31 04:20:35;;;;;;;14.30;12.82;;;20.90;80.40;;;;;;5094763;28;20028;-89
2022/08/31 04:23:01;;;;;;;13.52;12.07;;;20.80;77.50;;;;;;5095387;28;20025;-88
2022/08/31 04:25:26;;;;;;;16.83;12.27;;;20.80;74.20;;;;;;5095252;28;20069;-89
2022/08/31 04:27:53;;;;;;;14.13;12.65;;;20.80;68.60;;;;;;5095341;28;20031;-88
2022/08/31 04:30:20;;;;;;;13.00;11.65;;;20.70;87.20;;;;;;5094962;28;20026;-89
2022/08/31 04:32:46;;;;;;;12.63;11.32;;;20.70;71.70;;;;;;5095283;28;20036;-88
2022/08/31 04:35:13;;;;;;;14.73;11.90;;;20.80;85.40;;;;;;5094741;28;20067;-89
2022/08/31 04:37:40;;;;;;;13.20;11.90;;;20.80;75.30;;;;;;5095112;28;20556;-89
2022/08/31 04:40:07;;;;;;;11.52;10.50;;;20.80;80.00;;;;;;5095092;28;20028;-88
2022/08/31 04:42:36;;;;;;;12.30;11.10;;;20.80;83.20;;;;;;5095086;28;20020;-88
2022/08/31 04:45:01;;;;;;;13.52;11.52;;;20.80;71.00;;;;;;5095016;28;20023;-88
2022/08/31 04:47:27;;;;;;;13.07;11.70;;;20.80;74.70;;;;;;5094840;28;20032;-88
2022/08/31 04:49:53;;;;;;;12.13;10.80;;;20.80;70.20;;;;;;5094640;28;20047;-89
2022/08/31 04:52:18;;;;;;;13.70;11.50;;;20.70;77.20;;;;;;5094658;28;20034;-88
2022/08/31 04:54:44;;;;;;;11.40;10.23;;;20.70;81.30;;;;;;5094882;28;20024;-88
2022/08/31 04:57:09;;;;;;;12.73;11.43;;;20.80;78.00;;;;;;5094706;28;20028;-88
2022/08/31 04:59:35;;;;;;;12.23;11.00;;;20.70;89.20;;;;;;5094659;28;20450;-89
2022/08/31 05:02:02;;;;;;;13.05;10.80;;;20.70;95.40;;;;;;5094620;28;20040;-88
2022/08/31 05:04:28;;;;;;;16.88;11.18;;;20.70;65.30;;;;;;5094174;28;20027;-89
2022/08/31 05:06:54;;;;;;;11.65;10.45;;;20.70;78.50;;;;;;5094425;28;20485;-89
2022/08/31 05:09:22;;;;;;;11.80;10.60;;;20.80;92.60;;;;;;5094336;28;20024;-89
2022/08/31 05:11:50;;;;;;;11.38;10.27;;;20.80;97.40;;;;;;5094372;28;20390;-88
2022/08/31 05:14:16;;;;;;;11.35;10.05;;;20.80;92.20;;;;;;5094003;28;20028;-89
2022/08/31 05:16:42;;;;;;;13.80;10.60;;;20.90;73.60;;;;;;5094456;28;20081;-88
2022/08/31 05:19:08;;;;;;;10.82;9.82;;;20.70;79.60;;;;;;5093583;28;20035;-89
2022/08/31 05:21:37;;;;;;;11.70;10.13;;;20.70;79.90;;;;;;5075909;28;20043;-88
2022/08/31 05:24:08;;;;;;;10.68;9.57;;;20.70;90.70;;;;;;5094236;28;20035;-89
2022/08/31 05:26:39;;;;;;;11.52;10.07;;;20.80;86.70;;;;;;5094033;28;20409;-88
2022/08/31 05:29:07;;;;;;;10.95;9.80;;;20.80;95.40;;;;;;5093915;28;20107;-89
2022/08/31 05:31:35;;;;;;;11.30;10.05;;;20.90;93.60;;;;;;5093962;28;20040;-88
2022/08/31 05:34:01;;;;;;;10.93;9.82;;;20.80;94.40;;;;;;5093646;28;20040;-89
2022/08/31 05:36:26;;;;;;;11.05;9.95;;;20.80;93.40;;;;;;5093960;28;20032;-88
2022/08/31 05:38:52;;;;;;;11.23;10.13;;;20.80;92.50;;;;;;5093896;28;20024;-88
2022/08/31 05:41:19;;;;;;;11.70;9.75;;;20.80;88.70;;;;;;5094176;28;20449;-88
2022/08/31 05:43:45;;;;;;;11.57;10.18;;;20.80;94.10;;;;;;5093777;28;20093;-89
2022/08/31 05:46:12;;;;;;;11.95;10.65;;;20.80;64.20;;;;;;5093421;28;20020;-88
2022/08/31 05:48:38;;;;;;;11.57;10.48;;;20.70;90.10;;;;;;5093706;28;20512;-88
2022/08/31 05:51:07;;;;;;;12.52;11.23;;;20.80;76.90;;;;;;5093740;28;20052;-89
2022/08/31 05:53:33;;;;;;;13.65;12.38;;;20.80;89.40;;;;;;5093502;28;20036;-89
2022/08/31 05:56:05;;;;;;;13.93;11.90;;;20.60;86.50;;;;;;5075369;28;20366;-89
2022/08/31 05:58:32;;;;;;;15.05;12.65;;;20.60;86.00;;;;;;5093459;28;20093;-89
2022/08/31 06:00:58;;;;;;;15.80;12.30;;;20.50;84.00;;;;;;5093077;28;20020;-89
2022/08/31 06:03:24;;;;;;;15.95;12.93;;;20.70;87.00;;;;;;5093534;28;20069;-88
2022/08/31 06:05:51;;;;;;;14.43;12.98;;;20.70;90.80;;;;;;5093278;28;20047;-89
2022/08/31 06:08:17;;;;;;;15.38;13.30;;;20.70;92.40;;;;;;5093257;28;20568;-89
2022/08/31 06:10:43;;;;;;;16.45;14.48;;;20.60;88.10;;;;;;5093257;28;20016;-89
2022/08/31 06:13:12;;;;;;;18.10;14.40;;;20.70;93.30;;;;;;5093269;28;20473;-89
2022/08/31 06:15:39;;;;;;;16.55;13.95;;;20.70;89.30;;;;;;5092481;28;20096;-89
2022/08/31 06:18:06;;;;;;;16.08;14.23;;;20.90;98.90;;;;;;5093002;28;20039;-89
2022/08/31 06:20:36;;;;;;;18.45;15.65;;;20.80;81.80;;;;;;5093215;28;20485;-89
2022/08/31 06:23:04;;;;;;;17.05;15.32;;;21.00;87.20;;;;;;5092986;28;20032;-89
2022/08/31 06:25:31;;;;;;;16.20;14.50;;;21.00;99.90;;;;;;5093002;28;20392;-88
2022/08/31 06:27:58;;;;;;;20.35;15.35;;;21.00;80.90;;;;;;5093222;28;20028;-88
2022/08/31 06:30:26;;;;;;;16.92;15.15;;;21.20;91.80;;;;;;5091756;28;20043;-88
2022/08/31 06:32:52;;;;;;;16.77;14.70;;;21.30;95.50;;;;;;5092945;28;20028;-89
2022/08/31 06:35:18;;;;;;;17.08;14.20;;;21.40;72.70;;;;;;5092513;28;20032;-88
2022/08/31 06:37:44;;;;;;;15.27;13.65;;;21.60;84.00;;;;;;5092935;28;20084;-89
2022/08/31 06:40:10;;;;;;;15.60;14.00;;;21.80;62.30;;;;;;5092891;28;20031;-88
2022/08/31 06:42:36;;;;;;;16.20;14.57;;;21.70;60.90;;;;;;5092793;28;20024;-89
2022/08/31 06:45:04;;;;;;;16.30;14.68;;;21.50;50.30;;;;;;5092558;28;20032;-88
2022/08/31 06:47:30;;;;;;;16.33;14.63;;;21.70;62.80;;;;;;5092636;28;20055;-88
2022/08/31 06:49:56;;;;;;;15.13;13.60;;;21.90;72.70;;;;;;5092815;28;20039;-88
2022/08/31 06:52:22;;;;;;;15.65;13.23;;;22.00;62.10;;;;;;5092634;28;20046;-88
2022/08/31 06:54:48;;;;;;;15.52;13.93;;;21.90;76.10;;;;;;5092820;28;20032;-89
2022/08/31 06:57:14;;;;;;;14.82;12.68;;;21.70;65.80;;;;;;5092608;28;20499;-89
2022/08/31 06:59:39;;;;;;;15.20;13.48;;;21.60;64.70;;;;;;5092149;28;20032;-88
2022/08/31 07:02:06;;;;;;;14.40;12.90;;;21.80;62.20;;;;;;5092753;28;20511;-88
2022/08/31 07:04:34;;;;;;;14.55;13.05;;;21.70;62.60;;;;;;5092669;28;20401;-88
2022/08/31 07:07:00;;;;;;;14.95;12.38;;;21.70;64.30;;;;;;5092548;28;20028;-88
2022/08/31 07:09:26;;;;;;;14.18;12.73;;;21.70;72.70;;;;;;5092669;28;20020;-88
2022/08/31 07:11:52;;;;;;;14.07;12.70;;;21.60;85.80;;;;;;5092409;28;20059;-89
2022/08/31 07:14:23;;;;;;;14.52;12.95;;;21.40;60.10;;;;;;5091881;28;20047;-88
2022/08/31 07:16:50;;;;;;;14.63;13.23;;;21.50;70.30;;;;;;5092485;28;20028;-89
2022/08/31 07:19:17;;;;;;;15.02;13.52;;;21.50;67.90;;;;;;5092408;28;20024;-88
2022/08/31 07:21:45;;;;;;;14.57;13.20;;;21.40;61.80;;;;;;5074348;28;20024;-89
2022/08/31 07:24:14;;;;;;;14.15;12.70;;;21.50;68.60;;;;;;5092604;28;20069;-88
2022/08/31 07:26:43;;;;;;;15.18;13.57;;;21.70;65.80;;;;;;5092380;28;20020;-89
2022/08/31 07:29:10;;;;;;;15.10;13.25;;;22.10;69.60;;;;;;5073756;28;20488;-88
2022/08/31 07:31:46;;;;;;;18.23;12.82;;;22.20;72.90;;;;;;5092226;28;20405;-89
2022/08/31 07:34:22;;;;;;;14.10;12.70;;;22.30;77.40;;;;;;5092211;28;20032;-88
2022/08/31 07:42:23;;;;;;;15.32;13.73;;;22.10;74.20;;;;;;5093567;28;20034;-88
2022/08/31 07:44:51;;;;;;;15.75;13.98;;;22.10;75.40;;;;;;5096062;28;20066;-88
2022/08/31 07:47:19;;;;;;;15.55;13.88;;;22.10;73.80;;;;;;5096032;28;20077;-89
2022/08/31 07:49:49;;;;;;;16.20;14.55;;;22.20;73.60;;;;;;5095933;28;20058;-88
2022/08/31 07:52:20;;;;;;;16.25;14.55;;;22.30;74.70;;;;;;5095962;28;20099;-88
2022/08/31 07:54:47;;;;;;;16.77;14.82;;;22.30;80.00;;;;;;5095842;28;20496;-88
2022/08/31 07:57:14;;;;;;;17.25;14.90;;;22.90;78.80;;;;;;5077444;28;20435;-88
2022/08/31 07:59:40;;;;;;;16.88;15.27;;;23.00;84.40;;;;;;5095787;28;20401;-88
2022/08/31 08:02:09;;;;;;;15.52;13.95;;;23.10;82.20;;;;;;5095946;28;20055;-88
2022/08/31 08:04:38;;;;;;;15.38;13.65;;;23.00;87.50;;;;;;5095744;28;20028;-88
2022/08/31 08:07:07;;;;;;;14.68;13.38;;;23.20;71.70;;;;;;5095622;28;20042;-88
2022/08/31 08:09:32;;;;;;;15.50;13.90;;;22.90;71.20;;;;;;5095667;28;20032;-88
2022/08/31 08:12:05;;;;;;;15.15;13.65;;;22.80;72.10;;;;;;5095291;28;20088;-88
2022/08/31 08:14:32;;;;;;;16.10;14.50;;;22.90;79.20;;;;;;5095375;28;20044;-88
2022/08/31 08:16:58;;;;;;;15.70;14.18;;;23.00;90.60;;;;;;5095464;28;20039;-88
2022/08/31 08:19:24;;;;;;;16.35;14.77;;;23.10;82.70;;;;;;5095439;28;20024;-89
2022/08/31 08:21:50;;;;;;;17.60;15.90;;;23.30;71.10;;;;;;5095650;28;20062;-88
2022/08/31 08:24:16;;;;;;;18.08;16.27;;;23.00;69.00;;;;;;5095301;28;20041;-88
2022/08/31 08:26:43;;;;;;;18.48;16.67;;;23.20;75.80;;;;;;5094935;28;20035;-88
2022/08/31 08:29:09;;;;;;;21.80;19.60;;;23.00;85.30;;;;;;5095243;28;20016;-88
2022/08/31 08:31:35;;;;;;;22.92;20.73;;;23.00;70.00;;;;;;5094862;28;20054;-88
2022/08/31 08:34:01;;;;;;;22.75;20.55;;;22.80;66.60;;;;;;5096707;28;20480;-88
2022/08/31 08:36:34;;;;;;;20.08;18.08;;;22.70;73.90;;;;;;5094949;28;20055;-88
2022/08/31 08:39:01;;;;;;;20.15;18.15;;;22.80;88.40;;;;;;5095077;28;20062;-88
2022/08/31 08:41:30;;;;;;;18.58;16.88;;;23.10;81.60;;;;;;5094889;28;20056;-88
2022/08/31 08:43:59;;;;;;;17.88;16.05;;;23.30;73.90;;;;;;5094960;28;20499;-88
2022/08/31 08:46:48;;;;;;;16.63;15.02;;;23.40;81.00;;;;;;5076834;28;20509;-88
2022/08/31 08:49:28;;;;;;;15.27;13.88;;;23.50;87.40;;;;;;5094931;28;20485;-88
2022/08/31 08:52:28;;;;;;;15.50;14.00;;;23.60;90.70;;;;;;5094861;28;20028;-88
2022/08/31 08:54:59;;;;;;;14.35;13.05;;;23.70;75.80;;;;;;5092807;28;20048;-88
2022/08/31 08:57:34;;;;;;;15.25;13.68;;;23.80;75.00;;;;;;5094749;28;20063;-88
2022/08/31 09:00:08;;;;;;;14.10;12.80;;;23.60;91.90;;;;;;5094524;28;20089;-88
2022/08/31 09:02:40;;;;;;;14.40;12.93;;;23.60;73.80;;;;;;5094648;28;20035;-88
2022/08/31 09:05:23;;;;;;;14.57;13.18;;;23.70;85.60;;;;;;5094471;28;20032;-88
2022/08/31 09:08:15;;;;;;;14.82;13.35;;;23.50;84.70;;;;;;5094502;28;20530;-88
2022/08/31 09:10:42;;;;;;;13.85;12.60;;;23.60;90.60;;;;;;5094112;28;20435;-88
2022/08/31 09:13:31;;;;;;;14.30;13.00;;;23.60;78.80;;;;;;5094388;28;20042;-88
2022/08/31 09:16:08;;;;;;;14.52;13.13;;;23.70;93.90;;;;;;5094507;28;20032;-88
2022/08/31 09:18:53;;;;;;;13.98;12.70;;;23.70;92.80;;;;;;5094466;28;20560;-88
2022/08/31 09:21:28;;;;;;;15.63;14.13;;;24.50;93.80;;;;;;5076152;28;20038;-88
2022/08/31 09:24:18;;;;;;;14.35;12.88;;;24.80;97.40;;;;;;5093869;28;20033;-88
2022/08/31 09:27:17;;;;;;;14.30;12.60;;;25.10;94.30;;;;;;5075929;28;20107;-88
2022/08/31 09:29:52;;;;;;;11.88;10.77;;;26.00;99.50;;;;;;5094045;28;20047;-88
2022/08/31 09:32:26;;;;;;;11.98;10.80;;;26.40;94.10;;;;;;5054301;28;20049;-88
2022/08/31 09:34:59;;;;;;;11.18;10.07;;;26.10;99.10;;;;;;5053601;28;20029;-88
2022/08/31 09:37:32;;;;;;;12.43;11.18;;;26.00;99.90;;;;;;5053802;28;20478;-88
2022/08/31 09:40:31;;;;;;;11.98;10.77;;;25.80;99.90;;;;;;5053291;28;20041;-88
2022/08/31 09:43:12;;;;;;;11.35;10.35;;;26.70;98.40;;;;;;5053226;28;20037;-87
2022/08/31 09:46:07;;;;;;;12.38;11.13;;;27.10;97.80;;;;;;5053472;28;20040;-88
2022/08/31 09:48:55;;;;;;;12.27;10.60;;;28.40;89.70;;;;;;5011628;28;20042;-88
2022/08/31 09:51:32;;;;;;;11.70;10.50;;;29.50;91.20;;;;;;5011637;28;20402;-88
2022/08/31 09:57:01;;;;;;;11.48;10.40;;;28.20;77.80;;;;;;5011724;28;20036;-89
2022/08/31 09:59:36;;;;;;;11.80;10.43;;;28.70;87.00;;;;;;5011374;28;20079;-89
2022/08/31 10:02:07;;;;;;;11.02;9.77;;;29.70;90.40;;;;;;5011553;28;20439;-89
2022/08/31 10:04:40;;;;;;;11.00;9.80;;;35.30;96.20;;;;;;5011300;28;20091;-88
2022/08/31 10:07:16;;;;;;;10.15;9.25;;;38.90;97.00;;;;;;5011145;28;20120;-87
2022/08/31 10:09:50;;;;;;;10.32;9.43;;;38.20;97.00;;;;;;5011380;28;20097;-89
2022/08/31 10:12:25;;;;;;;15.10;9.77;;;39.60;98.30;;;;;;5011205;28;20033;-89
2022/08/31 10:15:02;;;;;;;9.80;9.00;;;39.40;96.10;;;;;;5011030;28;20050;-89
2022/08/31 10:17:44;;;;;;;10.05;8.95;;;41.00;96.30;;;;;;4994771;28;20058;-89
2022/08/31 10:20:21;;;;;;;12.02;9.13;;;41.10;95.10;;;;;;5011181;28;20049;-89
2022/08/31 10:22:55;;;;;;;10.32;9.40;;;39.20;92.90;;;;;;5010887;28;20116;-89
2022/08/31 10:25:29;;;;;;;10.13;9.25;;;37.70;91.90;;;;;;5028295;28;20033;-89
2022/08/31 10:28:14;;;;;;;12.40;8.65;;;39.30;92.60;;;;;;5052886;28;20029;-89
2022/08/31 10:31:05;;;;;;;8.80;8.00;;;39.90;91.30;;;;;;5061629;28;20157;-89
2022/08/31 10:36:32;;;;;;;9.48;8.50;;;38.10;87.30;;;;;;5092403;28;20519;-89
2022/08/31 10:38:58;;;;;;;8.77;8.07;;;33.70;85.30;;;;;;5092850;28;20027;-89
2022/08/31 10:41:37;;;;;;;7.95;7.25;;;34.00;85.60;;;;;;5092878;28;20070;-89
2022/08/31 10:44:26;;;;;;;7.88;7.03;;;32.20;83.50;;;;;;5093062;28;20032;-89
2022/08/31 10:46:57;;;;;;;6.90;6.22;;;34.00;85.80;;;;;;5092747;28;20020;-89
2022/08/31 10:49:24;;;;;;;7.22;6.10;;;39.50;89.40;;;;;;5092740;28;20020;-89
2022/08/31 10:52:08;;;;;;;6.80;6.20;;;37.40;81.20;;;;;;5092498;28;20411;-89
2022/08/31 10:54:55;;;;;;;7.07;6.43;;;34.00;82.20;;;;;;5092569;28;20047;-89
2022/08/31 10:57:49;;;;;;;6.82;6.18;;;31.40;82.60;;;;;;5092781;28;20086;-89
2022/08/31 11:00:47;;;;;;;6.53;6.03;;;29.90;85.50;;;;;;5090258;28;20439;-89
2022/08/31 11:03:47;;;;;;;6.50;5.90;;;34.10;86.30;;;;;;5092587;28;20036;-89
2022/08/31 11:06:28;;;;;;;6.50;5.80;;;36.40;86.20;;;;;;5092257;28;20024;-90
2022/08/31 11:09:32;;;;;;;6.25;5.70;;;35.70;84.10;;;;;;5092482;28;20028;-89
2022/08/31 11:12:12;;;;;;;6.90;5.80;;;35.20;82.10;;;;;;5090534;28;20512;-89
2022/08/31 11:15:16;;;;;;;6.78;5.93;;;35.40;83.70;;;;;;5092165;28;20035;-89
2022/08/31 11:17:57;;;;;;;6.97;5.68;;;35.60;83.40;;;;;;5094693;28;20039;-89
2022/08/31 11:20:53;;;;;;;5.88;5.43;;;35.90;82.20;;;;;;5096296;28;20020;-89
2022/08/31 11:23:44;;;;;;;5.95;5.45;;;36.80;82.90;;;;;;5096646;28;20056;-89
2022/08/31 11:26:37;;;;;;;5.80;5.30;;;34.00;78.60;;;;;;5096356;28;20046;-89
2022/08/31 11:29:29;;;;;;;5.45;4.95;;;32.60;79.60;;;;;;5096412;28;20024;-89
2022/08/31 11:32:07;;;;;;;6.65;4.97;;;37.60;82.20;;;;;;5096125;28;20058;-89
2022/08/31 11:34:45;;;;;;;5.40;4.88;;;41.40;80.60;;;;;;5095956;28;20047;-90
2022/08/31 11:37:31;;;;;;;7.07;5.30;;;40.40;76.80;;;;;;5096281;28;20071;-89
2022/08/31 11:39:57;;;;;;;5.60;5.10;;;38.40;77.50;;;;;;5077852;28;20035;-90
2022/08/31 11:42:26;;;;;;;5.72;5.22;;;40.60;71.30;;;;;;5096271;28;20025;-90
2022/08/31 11:44:59;;;;;;;5.50;4.63;;;43.40;73.40;;;;;;5096018;28;20047;-90
2022/08/31 11:47:28;;;;;;;5.28;4.78;;;45.30;60.70;;;;;;5096101;28;20055;-90
2022/08/31 11:49:56;;;;;;;5.28;4.80;;;42.00;59.80;;;;;;5095826;28;20024;-89
2022/08/31 11:52:28;;;;;;;5.30;4.80;;;37.80;63.80;;;;;;5096024;28;20016;-90
2022/08/31 11:55:36;;;;;;;5.40;4.88;;;38.50;67.00;;;;;;5095871;28;20075;-89
2022/08/31 11:58:05;;;;;;;5.20;4.70;;;43.80;64.20;;;;;;5083608;28;20052;-90
2022/08/31 12:00:44;;;;;;;5.60;4.32;;;43.20;61.60;;;;;;5095855;28;20035;-90
2022/08/31 12:03:30;;;;;;;4.68;4.28;;;43.10;58.00;;;;;;5095570;28;20038;-89
2022/08/31 12:05:56;;;;;;;5.00;4.50;;;43.70;57.40;;;;;;5095711;28;20103;-90
2022/08/31 12:08:26;;;;;;;5.10;4.60;;;42.90;56.10;;;;;;5095732;28;20040;-90
2022/08/31 12:10:57;;;;;;;6.72;4.70;;;40.40;55.20;;;;;;5095596;28;20039;-89
2022/08/31 12:13:25;;;;;;;4.68;4.28;;;39.60;54.10;;;;;;5095593;28;20401;-90
2022/08/31 12:16:03;;;;;;;5.78;4.70;;;42.10;59.00;;;;;;5095452;28;20020;-89
2022/08/31 12:18:38;;;;;;;6.05;4.55;;;44.40;56.90;;;;;;5095125;28;20032;-90
2022/08/31 12:24:30;;;;;;;5.18;4.72;;;39.90;53.90;;;;;;5095531;28;20142;-90
2022/08/31 12:27:17;;;;;;;7.57;4.85;;;37.10;54.50;;;;;;5095311;28;20023;-90
2022/08/31 12:29:44;;;;;;;8.38;5.38;;;36.50;56.30;;;;;;5093963;28;20415;-90
2022/08/31 12:32:29;;;;;;;7.72;4.97;;;35.50;53.30;;;;;;5094737;28;20404;-90
2022/08/31 12:35:16;;;;;;;5.00;4.50;;;35.10;56.50;;;;;;5095030;28;20043;-90
2022/08/31 12:37:42;;;;;;;4.95;4.55;;;35.70;57.20;;;;;;5094985;28;20024;-90
2022/08/31 12:40:11;;;;;;;5.32;4.72;;;36.60;54.60;;;;;;5095122;28;20099;-90
2022/08/31 12:43:06;;;;;;;5.18;4.40;;;36.10;57.00;;;;;;5095093;28;20024;-89
2022/08/31 12:45:42;;;;;;;4.93;4.43;;;37.70;56.50;;;;;;5094901;28;20024;-88
2022/08/31 12:48:24;;;;;;;5.05;4.60;;;39.70;57.00;;;;;;5076420;28;20027;-90
2022/08/31 12:51:01;;;;;;;4.82;4.43;;;40.50;58.10;;;;;;5094869;28;20024;-89
2022/08/31 12:53:42;;;;;;;4.85;4.43;;;41.30;57.30;;;;;;5094888;28;20063;-90
2022/08/31 12:56:29;;;;;;;4.40;4.00;;;41.70;55.10;;;;;;5094822;28;20043;-90
2022/08/31 12:59:00;;;;;;;5.45;4.10;;;44.10;55.90;;;;;;5094763;28;20100;-90
2022/08/31 13:01:27;;;;;;;4.53;3.92;;;45.10;52.90;;;;;;5094370;28;20039;-90
2022/08/31 13:03:57;;;;;;;7.18;4.40;;;44.50;47.00;;;;;;5094642;28;20024;-90
2022/08/31 13:06:29;;;;;;;5.85;4.00;;;43.60;50.20;;;;;;5094557;28;20035;-90
2022/08/31 13:08:57;;;;;;;5.70;3.97;;;44.20;50.40;;;;;;5094537;28;20021;-90